sensor_id;sensor_type;location;lat;lon;timestamp;pressure;altitude;pressure_sealevel;temperature;humidity
29467;BME280;60968;37.490;-122.288;2022-10-29T00:00:13;99324.22;;;15.94;54.21
29467;BME280;60968;37.490;-122.288;2022-10-29T00:03:14;99330.50;;;15.58;57.71
29467;BME280;60968;37.490;-122.288;2022-10-29T00:06:16;99329.66;;;15.26;59.61
29467;BME280;60968;37.490;-122.288;2022-10-29T00:09:17;99327.72;;;15.02;63.69
29467;BME280;60968;37.490;-122.288;2022-10-29T00:12:17;99327.09;;;14.57;67.54
29467;BME280;60968;37.490;-122.288;2022-10-29T00:15:20;99341.44;;;14.43;69.60
29467;BME280;60968;37.490;-122.288;2022-10-29T00:18:21;99336.00;;;14.14;72.41
29467;BME280;60968;37.490;-122.288;2022-10-29T00:21:25;99347.25;;;13.80;76.04
29467;BME280;60968;37.490;-122.288;2022-10-29T00:24:26;99339.25;;;13.47;77.94
29467;BME280;60968;37.490;-122.288;2022-10-29T00:27:27;99353.34;;;13.38;78.75
29467;BME280;60968;37.490;-122.288;2022-10-29T00:30:28;99344.94;;;13.23;78.18
29467;BME280;60968;37.490;-122.288;2022-10-29T00:33:30;99355.56;;;13.13;81.27
29467;BME280;60968;37.490;-122.288;2022-10-29T00:36:32;99349.84;;;12.93;85.25
29467;BME280;60968;37.490;-122.288;2022-10-29T00:39:33;99343.97;;;12.81;86.56
29467;BME280;60968;37.490;-122.288;2022-10-29T00:42:35;99347.63;;;12.69;87.42
29467;BME280;60968;37.490;-122.288;2022-10-29T00:45:40;99340.84;;;12.59;87.79
29467;BME280;60968;37.490;-122.288;2022-10-29T00:48:46;99347.00;;;12.57;87.96
29467;BME280;60968;37.490;-122.288;2022-10-29T00:51:48;99343.59;;;12.50;87.70
29467;BME280;60968;37.490;-122.288;2022-10-29T00:54:50;99338.47;;;12.45;87.59
29467;BME280;60968;37.490;-122.288;2022-10-29T00:57:53;99336.03;;;12.34;84.10
29467;BME280;60968;37.490;-122.288;2022-10-29T01:00:55;99335.22;;;12.31;81.43
29467;BME280;60968;37.490;-122.288;2022-10-29T01:03:57;99331.75;;;12.29;78.85
29467;BME280;60968;37.490;-122.288;2022-10-29T01:06:59;99334.41;;;12.27;77.88
29467;BME280;60968;37.490;-122.288;2022-10-29T01:10:00;99335.41;;;12.18;78.04
29467;BME280;60968;37.490;-122.288;2022-10-29T01:20:24;99325.06;;;12.12;74.49
29467;BME280;60968;37.490;-122.288;2022-10-29T01:27:37;99325.13;;;12.08;73.92
29467;BME280;60968;37.490;-122.288;2022-10-29T01:34:39;99322.66;;;11.98;70.78
29467;BME280;60968;37.490;-122.288;2022-10-29T01:41:13;99331.44;;;11.94;67.95
29467;BME280;60968;37.490;-122.288;2022-10-29T01:47:56;99335.75;;;11.94;66.48
29467;BME280;60968;37.490;-122.288;2022-10-29T01:51:03;99339.25;;;11.93;65.45
29467;BME280;60968;37.490;-122.288;2022-10-29T01:54:08;99344.47;;;11.93;64.63
29467;BME280;60968;37.490;-122.288;2022-10-29T01:57:32;99340.13;;;11.92;64.26
29467;BME280;60968;37.490;-122.288;2022-10-29T02:04:25;99347.97;;;11.92;61.25
29467;BME280;60968;37.490;-122.288;2022-10-29T02:07:37;99348.88;;;11.88;60.42
29467;BME280;60968;37.490;-122.288;2022-10-29T02:11:04;99359.34;;;11.86;59.79
29467;BME280;60968;37.490;-122.288;2022-10-29T02:14:29;99359.41;;;11.83;58.86
29467;BME280;60968;37.490;-122.288;2022-10-29T02:17:32;99366.44;;;11.78;58.78
29467;BME280;60968;37.490;-122.288;2022-10-29T02:20:34;99373.44;;;11.73;60.41
29467;BME280;60968;37.490;-122.288;2022-10-29T02:23:35;99380.50;;;11.67;60.09
29467;BME280;60968;37.490;-122.288;2022-10-29T02:26:36;99383.16;;;11.61;59.48
29467;BME280;60968;37.490;-122.288;2022-10-29T02:29:40;99391.94;;;11.54;58.82
29467;BME280;60968;37.490;-122.288;2022-10-29T02:32:41;99392.84;;;11.55;57.97
29467;BME280;60968;37.490;-122.288;2022-10-29T02:35:42;99391.97;;;11.53;57.28
29467;BME280;60968;37.490;-122.288;2022-10-29T02:38:43;99396.38;;;11.50;55.83
29467;BME280;60968;37.490;-122.288;2022-10-29T02:41:45;99400.72;;;11.48;55.58
29467;BME280;60968;37.490;-122.288;2022-10-29T02:44:47;99404.19;;;11.47;57.09
29467;BME280;60968;37.490;-122.288;2022-10-29T02:47:50;99405.97;;;11.47;58.35
29467;BME280;60968;37.490;-122.288;2022-10-29T02:50:51;99399.97;;;11.37;59.47
29467;BME280;60968;37.490;-122.288;2022-10-29T02:53:51;99408.75;;;11.30;61.54
29467;BME280;60968;37.490;-122.288;2022-10-29T02:56:54;99412.22;;;11.30;62.49
29467;BME280;60968;37.490;-122.288;2022-10-29T02:59:55;99413.91;;;11.35;62.44
29467;BME280;60968;37.490;-122.288;2022-10-29T03:02:56;99421.75;;;11.33;63.04
29467;BME280;60968;37.490;-122.288;2022-10-29T03:05:57;99418.34;;;11.28;63.38
29467;BME280;60968;37.490;-122.288;2022-10-29T03:08:58;99429.66;;;11.27;63.38
29467;BME280;60968;37.490;-122.288;2022-10-29T03:11:59;99427.06;;;11.27;62.87
29467;BME280;60968;37.490;-122.288;2022-10-29T03:15:01;99426.16;;;11.26;61.90
29467;BME280;60968;37.490;-122.288;2022-10-29T03:18:02;99416.69;;;11.18;62.14
29467;BME280;60968;37.490;-122.288;2022-10-29T03:21:04;99417.69;;;11.07;62.09
29467;BME280;60968;37.490;-122.288;2022-10-29T03:24:06;99419.47;;;11.01;61.30
29467;BME280;60968;37.490;-122.288;2022-10-29T03:27:06;99422.94;;;11.04;57.53
29467;BME280;60968;37.490;-122.288;2022-10-29T03:30:11;99421.91;;;11.18;57.61
29467;BME280;60968;37.490;-122.288;2022-10-29T03:33:12;99420.94;;;11.26;66.54
29467;BME280;60968;37.490;-122.288;2022-10-29T03:36:13;99421.91;;;11.18;73.66
29467;BME280;60968;37.490;-122.288;2022-10-29T03:39:14;99422.03;;;11.08;76.26
29467;BME280;60968;37.490;-122.288;2022-10-29T03:42:15;99422.94;;;11.01;77.22
29467;BME280;60968;37.490;-122.288;2022-10-29T03:45:16;99428.16;;;11.01;76.28
29467;BME280;60968;37.490;-122.288;2022-10-29T03:48:19;99427.34;;;10.97;73.83
29467;BME280;60968;37.490;-122.288;2022-10-29T03:51:19;99423.00;;;10.96;71.44
29467;BME280;60968;37.490;-122.288;2022-10-29T03:54:20;99432.53;;;10.99;70.24
29467;BME280;60968;37.490;-122.288;2022-10-29T03:57:22;99439.41;;;11.06;71.47
29467;BME280;60968;37.490;-122.288;2022-10-29T04:00:26;99435.06;;;11.10;70.71
29467;BME280;60968;37.490;-122.288;2022-10-29T04:03:29;99441.94;;;11.15;69.43
29467;BME280;60968;37.490;-122.288;2022-10-29T04:06:30;99441.94;;;11.17;69.57
29467;BME280;60968;37.490;-122.288;2022-10-29T04:09:31;99454.09;;;11.16;69.01
29467;BME280;60968;37.490;-122.288;2022-10-29T04:12:32;99448.03;;;11.14;69.20
29467;BME280;60968;37.490;-122.288;2022-10-29T04:15:32;99446.31;;;11.12;68.00
29467;BME280;60968;37.490;-122.288;2022-10-29T04:18:33;99435.06;;;11.07;66.90
29467;BME280;60968;37.490;-122.288;2022-10-29T04:21:35;99437.72;;;11.01;66.57
29467;BME280;60968;37.490;-122.288;2022-10-29T04:24:36;99446.47;;;10.96;63.86
29467;BME280;60968;37.490;-122.288;2022-10-29T04:27:37;99441.19;;;11.04;61.46
29467;BME280;60968;37.490;-122.288;2022-10-29T04:30:51;99447.19;;;11.12;59.70
29467;BME280;60968;37.490;-122.288;2022-10-29T04:33:52;99451.53;;;11.12;59.14
29467;BME280;60968;37.490;-122.288;2022-10-29T04:36:53;99446.34;;;11.10;59.51
29467;BME280;60968;37.490;-122.288;2022-10-29T04:39:55;99446.34;;;11.10;59.31
29467;BME280;60968;37.490;-122.288;2022-10-29T04:42:55;99452.47;;;11.06;57.76
29467;BME280;60968;37.490;-122.288;2022-10-29T04:45:57;99456.84;;;10.99;56.56
29467;BME280;60968;37.490;-122.288;2022-10-29T04:49:01;99459.53;;;10.92;56.00
29467;BME280;60968;37.490;-122.288;2022-10-29T04:52:01;99464.81;;;10.82;55.54
29467;BME280;60968;37.490;-122.288;2022-10-29T04:55:03;99464.03;;;10.73;55.41
29467;BME280;60968;37.490;-122.288;2022-10-29T04:58:17;99471.94;;;10.63;56.75
29467;BME280;60968;37.490;-122.288;2022-10-29T05:01:18;99465.88;;;10.58;57.00
29467;BME280;60968;37.490;-122.288;2022-10-29T05:04:19;99473.69;;;10.58;57.27
29467;BME280;60968;37.490;-122.288;2022-10-29T05:07:20;99463.25;;;10.58;56.89
29467;BME280;60968;37.490;-122.288;2022-10-29T05:10:20;99471.94;;;10.57;56.84
29467;BME280;60968;37.490;-122.288;2022-10-29T05:13:21;99465.94;;;10.52;57.77
29467;BME280;60968;37.490;-122.288;2022-10-29T05:16:22;99468.53;;;10.47;57.84
29467;BME280;60968;37.490;-122.288;2022-10-29T05:19:23;99465.94;;;10.47;57.66
29467;BME280;60968;37.490;-122.288;2022-10-29T05:22:25;99478.94;;;10.52;57.69
29467;BME280;60968;37.490;-122.288;2022-10-29T05:25:27;99478.09;;;10.49;57.70
29467;BME280;60968;37.490;-122.288;2022-10-29T05:28:28;99476.34;;;10.47;57.27
29467;BME280;60968;37.490;-122.288;2022-10-29T05:31:30;99478.06;;;10.53;58.02
29467;BME280;60968;37.490;-122.288;2022-10-29T05:34:32;99478.81;;;10.71;60.18
29467;BME280;60968;37.490;-122.288;2022-10-29T05:37:33;99477.88;;;10.81;62.29
29467;BME280;60968;37.490;-122.288;2022-10-29T05:40:33;99489.19;;;10.81;64.46
29467;BME280;60968;37.490;-122.288;2022-10-29T05:43:34;99505.69;;;10.80;66.67
29467;BME280;60968;37.490;-122.288;2022-10-29T05:46:35;99501.31;;;10.81;67.69
29467;BME280;60968;37.490;-122.288;2022-10-29T05:49:37;99502.22;;;10.78;68.54
29467;BME280;60968;37.490;-122.288;2022-10-29T05:52:38;99514.44;;;10.67;69.90
29467;BME280;60968;37.490;-122.288;2022-10-29T05:55:40;99512.78;;;10.55;70.28
29467;BME280;60968;37.490;-122.288;2022-10-29T05:58:43;99499.81;;;10.47;69.59
29467;BME280;60968;37.490;-122.288;2022-10-29T06:01:43;99511.13;;;10.46;69.00
29467;BME280;60968;37.490;-122.288;2022-10-29T06:04:44;99507.63;;;10.46;70.24
29467;BME280;60968;37.490;-122.288;2022-10-29T06:07:45;99508.53;;;10.42;71.31
29467;BME280;60968;37.490;-122.288;2022-10-29T06:10:48;99504.22;;;10.36;72.44
29467;BME280;60968;37.490;-122.288;2022-10-29T06:13:48;99500.75;;;10.29;73.39
29467;BME280;60968;37.490;-122.288;2022-10-29T06:16:49;99488.63;;;10.27;73.34
29467;BME280;60968;37.490;-122.288;2022-10-29T06:19:53;99498.16;;;10.23;73.90
29467;BME280;60968;37.490;-122.288;2022-10-29T06:22:58;99504.25;;;10.27;74.39
29467;BME280;60968;37.490;-122.288;2022-10-29T06:25:59;99502.47;;;10.29;75.05
29467;BME280;60968;37.490;-122.288;2022-10-29T06:29:00;99495.53;;;10.33;75.06
29467;BME280;60968;37.490;-122.288;2022-10-29T06:32:01;99501.63;;;10.35;74.66
29467;BME280;60968;37.490;-122.288;2022-10-29T06:35:02;99500.72;;;10.40;71.78
29467;BME280;60968;37.490;-122.288;2022-10-29T06:38:04;99505.00;;;10.52;65.73
29467;BME280;60968;37.490;-122.288;2022-10-29T06:41:05;99506.66;;;10.62;62.69
29467;BME280;60968;37.490;-122.288;2022-10-29T06:44:08;99512.72;;;10.69;61.90
29467;BME280;60968;37.490;-122.288;2022-10-29T06:47:09;99504.06;;;10.62;63.05
29467;BME280;60968;37.490;-122.288;2022-10-29T06:50:12;99504.97;;;10.57;63.76
29467;BME280;60968;37.490;-122.288;2022-10-29T06:53:13;99502.41;;;10.51;63.69
29467;BME280;60968;37.490;-122.288;2022-10-29T06:56:15;99503.22;;;10.56;62.79
29467;BME280;60968;37.490;-122.288;2022-10-29T06:59:16;99508.34;;;10.76;61.83
29467;BME280;60968;37.490;-122.288;2022-10-29T07:02:18;99497.78;;;10.88;61.19
29467;BME280;60968;37.490;-122.288;2022-10-29T07:05:22;99510.78;;;10.97;64.00
29467;BME280;60968;37.490;-122.288;2022-10-29T07:08:26;99506.41;;;10.99;64.90
29467;BME280;60968;37.490;-122.288;2022-10-29T07:11:27;99502.03;;;11.03;63.02
29467;BME280;60968;37.490;-122.288;2022-10-29T07:14:28;99495.97;;;10.99;62.42
29467;BME280;60968;37.490;-122.288;2022-10-29T07:17:29;99506.50;;;10.86;62.49
29467;BME280;60968;37.490;-122.288;2022-10-29T07:20:33;99504.88;;;10.71;63.72
29467;BME280;60968;37.490;-122.288;2022-10-29T07:23:35;99497.09;;;10.66;64.26
29467;BME280;60968;37.490;-122.288;2022-10-29T07:26:37;99500.59;;;10.59;64.10
29467;BME280;60968;37.490;-122.288;2022-10-29T07:29:38;99507.59;;;10.55;64.06
29467;BME280;60968;37.490;-122.288;2022-10-29T07:32:39;99506.72;;;10.56;64.67
29467;BME280;60968;37.490;-122.288;2022-10-29T07:35:41;99499.78;;;10.54;65.25
29467;BME280;60968;37.490;-122.288;2022-10-29T07:38:42;99505.91;;;10.48;65.40
29467;BME280;60968;37.490;-122.288;2022-10-29T07:41:43;99502.47;;;10.38;65.73
29467;BME280;60968;37.490;-122.288;2022-10-29T07:44:44;99508.56;;;10.36;66.32
29467;BME280;60968;37.490;-122.288;2022-10-29T07:47:46;99514.66;;;10.28;67.64
29467;BME280;60968;37.490;-122.288;2022-10-29T07:50:48;99514.69;;;10.19;69.45
29467;BME280;60968;37.490;-122.288;2022-10-29T07:53:49;99527.69;;;10.19;70.85
29467;BME280;60968;37.490;-122.288;2022-10-29T07:56:52;99523.38;;;10.17;72.33
29467;BME280;60968;37.490;-122.288;2022-10-29T07:59:53;99530.34;;;10.15;74.14
29467;BME280;60968;37.490;-122.288;2022-10-29T08:02:56;99544.22;;;10.15;75.94
29467;BME280;60968;37.490;-122.288;2022-10-29T08:05:58;99546.81;;;10.13;76.88
29467;BME280;60968;37.490;-122.288;2022-10-29T08:08:59;99548.59;;;10.10;78.16
29467;BME280;60968;37.490;-122.288;2022-10-29T08:12:00;99549.50;;;9.95;77.71
29467;BME280;60968;37.490;-122.288;2022-10-29T08:15:00;99540.84;;;9.87;78.77
29467;BME280;60968;37.490;-122.288;2022-10-29T08:18:02;99525.22;;;9.85;79.15
29467;BME280;60968;37.490;-122.288;2022-10-29T08:21:08;99522.66;;;9.77;79.29
29467;BME280;60968;37.490;-122.288;2022-10-29T08:24:09;99520.06;;;9.71;79.60
29467;BME280;60968;37.490;-122.288;2022-10-29T08:27:11;99512.25;;;9.79;78.93
29467;BME280;60968;37.490;-122.288;2022-10-29T08:30:14;99506.16;;;9.78;78.77
29467;BME280;60968;37.490;-122.288;2022-10-29T08:33:16;99504.38;;;9.90;79.47
29467;BME280;60968;37.490;-122.288;2022-10-29T08:36:17;99506.97;;;9.99;79.81
29467;BME280;60968;37.490;-122.288;2022-10-29T08:39:19;99507.84;;;10.03;79.55
29467;BME280;60968;37.490;-122.288;2022-10-29T08:42:39;99525.22;;;9.85;80.06
29467;BME280;60968;37.490;-122.288;2022-10-29T08:45:46;99520.94;;;9.75;81.47
29467;BME280;60968;37.490;-122.288;2022-10-29T08:48:53;99519.22;;;9.69;82.50
29467;BME280;60968;37.490;-122.288;2022-10-29T08:52:10;99516.59;;;9.65;82.85
29467;BME280;60968;37.490;-122.288;2022-10-29T08:55:18;99514.03;;;9.58;83.00
29467;BME280;60968;37.490;-122.288;2022-10-29T08:58:32;99521.81;;;9.61;82.38
29467;BME280;60968;37.490;-122.288;2022-10-29T09:01:35;99520.09;;;9.62;82.17
29467;BME280;60968;37.490;-122.288;2022-10-29T09:04:37;99533.97;;;9.56;81.94
29467;BME280;60968;37.490;-122.288;2022-10-29T09:07:51;99549.59;;;9.47;82.54
29467;BME280;60968;37.490;-122.288;2022-10-29T09:11:05;99559.13;;;9.42;83.44
29467;BME280;60968;37.490;-122.288;2022-10-29T09:17:56;99565.22;;;9.41;86.21
29467;BME280;60968;37.490;-122.288;2022-10-29T09:24:27;99566.94;;;9.28;87.94
29467;BME280;60968;37.490;-122.288;2022-10-29T09:34:12;99552.19;;;9.24;92.81
29467;BME280;60968;37.490;-122.288;2022-10-29T09:40:47;99547.88;;;9.14;92.19
29467;BME280;60968;37.490;-122.288;2022-10-29T09:43:55;99545.25;;;9.14;92.16
29467;BME280;60968;37.490;-122.288;2022-10-29T09:51:09;99547.84;;;9.17;90.67
29467;BME280;60968;37.490;-122.288;2022-10-29T09:53:43;99549.59;;;9.15;89.49
29467;BME280;60968;37.490;-122.288;2022-10-29T09:56:45;99540.94;;;9.19;88.63
29467;BME280;60968;37.490;-122.288;2022-10-29T10:00:00;99544.41;;;9.15;88.40
29467;BME280;60968;37.490;-122.288;2022-10-29T10:06:14;99537.47;;;9.04;87.71
29467;BME280;60968;37.490;-122.288;2022-10-29T10:09:15;99531.41;;;9.10;87.19
29467;BME280;60968;37.490;-122.288;2022-10-29T10:12:21;99535.75;;;9.14;87.10
29467;BME280;60968;37.490;-122.288;2022-10-29T10:15:34;99537.44;;;9.18;88.39
29467;BME280;60968;37.490;-122.288;2022-10-29T10:18:41;99531.41;;;9.16;88.97
29467;BME280;60968;37.490;-122.288;2022-10-29T10:21:56;99537.47;;;9.10;90.11
29467;BME280;60968;37.490;-122.288;2022-10-29T10:24:57;99526.19;;;9.05;90.91
29467;BME280;60968;37.490;-122.288;2022-10-29T10:28:04;99522.75;;;9.02;91.69
29467;BME280;60968;37.490;-122.288;2022-10-29T10:31:15;99518.41;;;8.98;92.18
29467;BME280;60968;37.490;-122.288;2022-10-29T10:34:19;99523.63;;;8.95;93.42
29467;BME280;60968;37.490;-122.288;2022-10-29T10:37:21;99517.56;;;9.00;94.01
29467;BME280;60968;37.490;-122.288;2022-10-29T10:40:23;99518.41;;;8.99;94.36
29467;BME280;60968;37.490;-122.288;2022-10-29T10:43:25;99517.56;;;9.00;94.46
29467;BME280;60968;37.490;-122.288;2022-10-29T10:46:38;99517.56;;;9.00;95.64
29467;BME280;60968;37.490;-122.288;2022-10-29T10:49:40;99514.94;;;9.05;97.63
29467;BME280;60968;37.490;-122.288;2022-10-29T10:52:41;99519.28;;;9.09;99.21
29467;BME280;60968;37.490;-122.288;2022-10-29T10:55:55;99517.53;;;9.11;100.00
29467;BME280;60968;37.490;-122.288;2022-10-29T10:59:04;99525.34;;;9.06;100.00
29467;BME280;60968;37.490;-122.288;2022-10-29T11:02:18;99526.19;;;9.08;100.00
29467;BME280;60968;37.490;-122.288;2022-10-29T11:05:24;99519.28;;;9.10;100.00
29467;BME280;60968;37.490;-122.288;2022-10-29T11:08:33;99513.22;;;9.15;100.00
29467;BME280;60968;37.490;-122.288;2022-10-29T11:11:43;99513.22;;;9.13;100.00
29467;BME280;60968;37.490;-122.288;2022-10-29T11:14:52;99510.63;;;9.10;100.00
29467;BME280;60968;37.490;-122.288;2022-10-29T11:18:00;99523.59;;;9.05;100.00
29467;BME280;60968;37.490;-122.288;2022-10-29T11:24:52;99519.28;;;9.07;100.00
29467;BME280;60968;37.490;-122.288;2022-10-29T11:31:23;99518.38;;;9.08;100.00
29467;BME280;60968;37.490;-122.288;2022-10-29T11:38:02;99506.28;;;8.98;100.00
29467;BME280;60968;37.490;-122.288;2022-10-29T11:41:23;99510.63;;;8.93;100.00
29467;BME280;60968;37.490;-122.288;2022-10-29T11:44:26;99514.94;;;8.89;100.00
29467;BME280;60968;37.490;-122.288;2022-10-29T11:57:13;99514.06;;;8.97;98.44
29467;BME280;60968;37.490;-122.288;2022-10-29T12:00:22;99512.34;;;9.06;92.94
29467;BME280;60968;37.490;-122.288;2022-10-29T12:13:44;99513.19;;;9.46;80.94
29467;BME280;60968;37.490;-122.288;2022-10-29T12:17:04;99513.16;;;9.49;80.06
29467;BME280;60968;37.490;-122.288;2022-10-29T12:20:23;99513.16;;;9.53;78.84
29467;BME280;60968;37.490;-122.288;2022-10-29T12:23:58;99510.53;;;9.55;78.46
29467;BME280;60968;37.490;-122.288;2022-10-29T12:27:08;99514.91;;;9.54;78.72
29467;BME280;60968;37.490;-122.288;2022-10-29T12:30:15;99520.13;;;9.50;78.84
29467;BME280;60968;37.490;-122.288;2022-10-29T12:33:29;99516.63;;;9.48;78.78
29467;BME280;60968;37.490;-122.288;2022-10-29T12:36:44;99519.25;;;9.44;79.20
29467;BME280;60968;37.490;-122.288;2022-10-29T12:39:54;99531.38;;;9.47;78.98
29467;BME280;60968;37.490;-122.288;2022-10-29T12:43:01;99539.19;;;9.42;79.59
29467;BME280;60968;37.490;-122.288;2022-10-29T12:49:27;99537.47;;;9.29;81.16
29467;BME280;60968;37.490;-122.288;2022-10-29T12:55:42;99534.84;;;9.18;82.04
29467;BME280;60968;37.490;-122.288;2022-10-29T12:58:54;99544.41;;;9.18;84.70
29467;BME280;60968;37.490;-122.288;2022-10-29T13:01:55;99547.00;;;9.12;85.11
29467;BME280;60968;37.490;-122.288;2022-10-29T13:08:26;99553.06;;;8.98;83.98
29467;BME280;60968;37.490;-122.288;2022-10-29T13:11:45;99553.94;;;9.02;83.45
29467;BME280;60968;37.490;-122.288;2022-10-29T13:14:55;99540.91;;;9.13;83.10
29467;BME280;60968;37.490;-122.288;2022-10-29T13:18:22;99539.19;;;9.22;82.90
29467;BME280;60968;37.490;-122.288;2022-10-29T13:31:43;99539.19;;;9.49;79.72
29467;BME280;60968;37.490;-122.288;2022-10-29T13:34:55;99537.44;;;9.46;79.74
29467;BME280;60968;37.490;-122.288;2022-10-29T13:38:15;99543.50;;;9.45;79.84
29467;BME280;60968;37.490;-122.288;2022-10-29T13:44:26;99538.31;;;9.39;80.45
29467;BME280;60968;37.490;-122.288;2022-10-29T13:47:28;99535.72;;;9.40;80.68
29467;BME280;60968;37.490;-122.288;2022-10-29T13:50:30;99535.72;;;9.40;80.93
29467;BME280;60968;37.490;-122.288;2022-10-29T13:53:53;99544.41;;;9.42;81.52
29467;BME280;60968;37.490;-122.288;2022-10-29T14:00:22;99545.25;;;9.43;82.28
29467;BME280;60968;37.490;-122.288;2022-10-29T14:03:32;99548.72;;;9.45;82.16
29467;BME280;60968;37.490;-122.288;2022-10-29T14:06:37;99540.91;;;9.42;82.22
29467;BME280;60968;37.490;-122.288;2022-10-29T14:09:46;99545.28;;;9.40;82.85
29467;BME280;60968;37.490;-122.288;2022-10-29T14:12:53;99539.19;;;9.39;83.04
29467;BME280;60968;37.490;-122.288;2022-10-29T14:16:09;99535.72;;;9.43;83.32
29467;BME280;60968;37.490;-122.288;2022-10-29T14:19:19;99536.59;;;9.46;83.68
29467;BME280;60968;37.490;-122.288;2022-10-29T14:22:37;99540.03;;;9.46;83.88
29467;BME280;60968;37.490;-122.288;2022-10-29T14:25:37;99543.53;;;9.37;83.84
29467;BME280;60968;37.490;-122.288;2022-10-29T14:28:38;99542.69;;;9.35;84.06
29467;BME280;60968;37.490;-122.288;2022-10-29T14:31:39;99539.19;;;9.35;84.27
29467;BME280;60968;37.490;-122.288;2022-10-29T14:34:41;99537.47;;;9.35;84.45
29467;BME280;60968;37.490;-122.288;2022-10-29T14:37:43;99535.75;;;9.34;84.42
29467;BME280;60968;37.490;-122.288;2022-10-29T14:40:45;99533.13;;;9.40;84.63
29467;BME280;60968;37.490;-122.288;2022-10-29T14:44:13;99533.13;;;9.50;84.74
29467;BME280;60968;37.490;-122.288;2022-10-29T14:47:30;99538.31;;;9.56;84.78
29467;BME280;60968;37.490;-122.288;2022-10-29T14:50:33;99543.50;;;9.57;84.57
29467;BME280;60968;37.490;-122.288;2022-10-29T14:53:38;99546.97;;;9.59;84.69
29467;BME280;60968;37.490;-122.288;2022-10-29T14:56:46;99548.69;;;9.68;84.52
29467;BME280;60968;37.490;-122.288;2022-10-29T14:59:59;99542.59;;;9.85;84.60
29467;BME280;60968;37.490;-122.288;2022-10-29T15:03:01;99545.13;;;10.05;83.67
29467;BME280;60968;37.490;-122.288;2022-10-29T15:06:14;99553.75;;;10.18;83.25
29467;BME280;60968;37.490;-122.288;2022-10-29T15:09:16;99560.66;;;10.23;82.82
29467;BME280;60968;37.490;-122.288;2022-10-29T15:12:34;99559.78;;;10.30;83.57
29467;BME280;60968;37.490;-122.288;2022-10-29T15:15:36;99565.84;;;10.40;83.34
29467;BME280;60968;37.490;-122.288;2022-10-29T15:18:37;99565.78;;;10.54;83.18
29467;BME280;60968;37.490;-122.288;2022-10-29T15:21:38;99573.50;;;10.70;83.69
29467;BME280;60968;37.490;-122.288;2022-10-29T15:24:47;99578.63;;;10.85;83.34
29467;BME280;60968;37.490;-122.288;2022-10-29T15:27:51;99577.69;;;10.98;82.89
29467;BME280;60968;37.490;-122.288;2022-10-29T15:30:52;99581.97;;;11.09;82.89
29467;BME280;60968;37.490;-122.288;2022-10-29T15:33:56;99589.69;;;11.21;82.27
29467;BME280;60968;37.490;-122.288;2022-10-29T15:40:25;99586.09;;;11.39;80.82
29467;BME280;60968;37.490;-122.288;2022-10-29T15:43:28;99584.22;;;11.52;77.06
29467;BME280;60968;37.490;-122.288;2022-10-29T15:46:34;99585.81;;;11.67;76.57
29467;BME280;60968;37.490;-122.288;2022-10-29T15:49:44;99590.91;;;11.81;76.14
29467;BME280;60968;37.490;-122.288;2022-10-29T15:52:59;99607.34;;;11.91;74.30
29467;BME280;60968;37.490;-122.288;2022-10-29T15:56:00;99616.00;;;11.99;74.26
29467;BME280;60968;37.490;-122.288;2022-10-29T15:59:03;99610.72;;;12.07;73.12
29467;BME280;60968;37.490;-122.288;2022-10-29T16:02:15;99615.81;;;12.17;75.54
29467;BME280;60968;37.490;-122.288;2022-10-29T16:05:17;99617.47;;;12.25;75.13
29467;BME280;60968;37.490;-122.288;2022-10-29T16:08:50;99607.00;;;12.28;75.47
29467;BME280;60968;37.490;-122.288;2022-10-29T16:11:49;99608.66;;;12.35;74.91
29467;BME280;60968;37.490;-122.288;2022-10-29T16:14:50;99610.22;;;12.48;71.30
29467;BME280;60968;37.490;-122.288;2022-10-29T16:17:52;99603.81;;;12.73;70.13
29467;BME280;60968;37.490;-122.288;2022-10-29T16:20:58;99618.25;;;13.01;71.02
29467;BME280;60968;37.490;-122.288;2022-10-29T16:23:59;99622.97;;;13.90;69.11
29467;BME280;60968;37.490;-122.288;2022-10-29T16:27:00;99623.34;;;17.04;59.14
29467;BME280;60968;37.490;-122.288;2022-10-29T16:30:02;99612.47;;;20.21;48.16
29467;BME280;60968;37.490;-122.288;2022-10-29T16:33:03;99604.66;;;22.55;42.73
29467;BME280;60968;37.490;-122.288;2022-10-29T16:36:05;99611.59;;;23.37;38.35
29467;BME280;60968;37.490;-122.288;2022-10-29T16:39:08;99608.63;;;24.47;37.12
29467;BME280;60968;37.490;-122.288;2022-10-29T16:45:28;99612.88;;;24.21;36.36
29467;BME280;60968;37.490;-122.288;2022-10-29T16:48:29;99592.59;;;25.85;34.56
29467;BME280;60968;37.490;-122.288;2022-10-29T16:51:30;99598.53;;;26.04;32.91
29467;BME280;60968;37.490;-122.288;2022-10-29T16:54:30;99609.25;;;26.92;31.82
29467;BME280;60968;37.490;-122.288;2022-10-29T16:57:31;99610.78;;;27.32;30.35
29467;BME280;60968;37.490;-122.288;2022-10-29T17:00:32;99607.13;;;26.72;31.05
29467;BME280;60968;37.490;-122.288;2022-10-29T17:03:33;99607.47;;;26.54;31.04
29467;BME280;60968;37.490;-122.288;2022-10-29T17:06:34;99595.81;;;27.05;30.15
29467;BME280;60968;37.490;-122.288;2022-10-29T17:09:37;99597.16;;;26.86;30.52
29467;BME280;60968;37.490;-122.288;2022-10-29T17:12:38;99605.06;;;26.88;31.08
29467;BME280;60968;37.490;-122.288;2022-10-29T17:15:39;99604.78;;;26.67;30.45
29467;BME280;60968;37.490;-122.288;2022-10-29T17:18:40;99599.09;;;25.14;32.53
29467;BME280;60968;37.490;-122.288;2022-10-29T17:21:44;99606.78;;;22.64;37.49
29467;BME280;60968;37.490;-122.288;2022-10-29T17:24:45;99603.00;;;20.15;42.42
29467;BME280;60968;37.490;-122.288;2022-10-29T17:27:47;99620.59;;;19.53;45.81
29467;BME280;60968;37.490;-122.288;2022-10-29T17:30:48;99617.47;;;18.51;46.07
29467;BME280;60968;37.490;-122.288;2022-10-29T17:33:50;99621.09;;;18.49;46.00
29467;BME280;60968;37.490;-122.288;2022-10-29T17:36:50;99611.56;;;18.68;45.46